createdAt,value
2019-01-12T00:00:01.811Z,83.40
2019-01-12T00:02:29.052Z,83.27
2019-01-12T00:04:56.294Z,83.20
2019-01-12T00:07:23.552Z,83.42
2019-01-12T00:09:50.770Z,83.36
2019-01-12T00:12:18.363Z,83.32
2019-01-12T00:14:45.598Z,83.23
2019-01-12T00:17:12.990Z,83.14
2019-01-12T00:19:40.296Z,83.22
2019-01-12T00:22:07.528Z,83.19
2019-01-12T00:24:34.746Z,83.14
2019-01-12T00:27:02.006Z,82.80
2019-01-12T00:29:29.311Z,82.68
2019-01-12T00:31:56.503Z,82.58
2019-01-12T00:34:24.032Z,83.09
2019-01-12T00:36:51.257Z,83.16
2019-01-12T00:39:18.606Z,83.79
2019-01-12T00:41:46.074Z,83.75
2019-01-12T00:44:13.284Z,83.76
2019-01-12T00:46:40.727Z,83.51
2019-01-12T00:49:07.988Z,83.44
2019-01-12T00:51:35.334Z,83.20
2019-01-12T00:54:02.681Z,82.94
2019-01-12T00:56:29.915Z,82.83
2019-01-12T00:58:57.169Z,82.87
2019-01-12T01:01:24.763Z,83.02
2019-01-12T01:03:52.148Z,83.34
2019-01-12T01:06:19.388Z,83.06
2019-01-12T01:08:46.603Z,82.92
2019-01-12T01:11:13.831Z,82.72
2019-01-12T01:13:41.085Z,82.89
2019-01-12T01:16:08.334Z,82.65
2019-01-12T01:18:35.551Z,82.47
2019-01-12T01:21:02.905Z,82.28
2019-01-12T01:23:30.123Z,82.05
2019-01-12T01:25:57.378Z,81.38
2019-01-12T01:28:24.716Z,81.60
2019-01-12T01:30:52.112Z,81.43
2019-01-12T01:33:19.370Z,80.94
2019-01-12T01:35:46.588Z,80.94
2019-01-12T01:38:13.854Z,80.46
2019-01-12T01:40:41.055Z,80.27
2019-01-12T01:43:08.316Z,80.37
2019-01-12T01:45:35.827Z,80.40
2019-01-12T01:48:03.164Z,80.18
2019-01-12T01:50:30.718Z,80.43
2019-01-12T01:52:57.988Z,80.52
2019-01-12T01:55:26.525Z,80.34
2019-01-12T01:57:53.753Z,80.27
2019-01-12T02:00:21.072Z,80.22
2019-01-12T02:02:48.356Z,80.00
2019-01-12T02:05:15.856Z,80.47
2019-01-12T02:07:43.191Z,80.10
2019-01-12T02:10:14.074Z,79.49
2019-01-12T02:12:41.291Z,79.37
2019-01-12T02:15:09.755Z,79.14
2019-01-12T02:17:36.988Z,79.47
2019-01-12T02:20:04.980Z,79.21
2019-01-12T02:22:32.205Z,79.53
2019-01-12T02:25:00.987Z,79.21
2019-01-12T02:27:28.284Z,78.91
2019-01-12T02:29:55.518Z,78.59
2019-01-12T02:32:22.771Z,79.04
2019-01-12T02:34:52.174Z,78.44
2019-01-12T02:37:19.498Z,78.44
2019-01-12T02:39:46.796Z,78.11
2019-01-12T02:42:14.393Z,78.84
2019-01-12T02:44:41.610Z,78.95
2019-01-12T02:47:09.245Z,78.61
2019-01-12T02:49:36.610Z,78.05
2019-01-12T02:52:03.835Z,78.05
2019-01-12T02:54:31.076Z,78.85
2019-01-12T02:56:59.486Z,77.54
2019-01-12T02:59:26.874Z,78.15
2019-01-12T03:01:54.498Z,77.19
2019-01-12T03:04:21.820Z,77.10
2019-01-12T03:06:49.194Z,76.90
2019-01-12T03:09:17.579Z,77.29
2019-01-12T03:11:44.858Z,77.83
2019-01-12T03:14:12.148Z,77.04
2019-01-12T03:16:39.404Z,77.08
2019-01-12T03:19:06.623Z,76.97
2019-01-12T03:21:33.950Z,77.58
2019-01-12T03:24:01.186Z,77.03
2019-01-12T03:26:28.465Z,77.32
2019-01-12T03:28:55.673Z,77.47
2019-01-12T03:31:22.916Z,77.54
2019-01-12T03:33:50.293Z,77.60
2019-01-12T03:36:17.530Z,77.57
2019-01-12T03:38:45.047Z,78.45
2019-01-12T03:41:12.347Z,78.40
2019-01-12T03:43:39.961Z,77.77
2019-01-12T03:46:07.480Z,78.74
2019-01-12T03:48:34.691Z,78.74
2019-01-12T03:51:01.983Z,77.79
2019-01-12T03:53:29.202Z,77.82
2019-01-12T03:55:56.444Z,78.26
2019-01-12T03:58:23.799Z,77.19
2019-01-12T04:00:51.056Z,78.28
2019-01-12T04:03:18.286Z,77.02
2019-01-12T04:05:45.530Z,77.22
2019-01-12T04:08:12.802Z,77.02
2019-01-12T04:10:40.061Z,77.08
2019-01-12T04:13:07.287Z,76.21
2019-01-12T04:15:34.516Z,76.16
2019-01-12T04:18:01.774Z,77.21
2019-01-12T04:20:29.002Z,76.61
2019-01-12T04:22:56.473Z,75.48
2019-01-12T04:25:23.832Z,75.25
2019-01-12T04:27:53.308Z,75.08
2019-01-12T04:30:20.532Z,76.14
2019-01-12T04:32:47.829Z,77.03
2019-01-12T04:35:15.495Z,75.72
2019-01-12T04:37:42.728Z,74.72
2019-01-12T04:40:15.481Z,73.42
2019-01-12T04:42:42.710Z,74.93
2019-01-12T04:45:10.176Z,72.71
2019-01-12T04:47:37.568Z,74.10
2019-01-12T04:50:07.041Z,72.56
2019-01-12T04:52:34.326Z,73.78
2019-01-12T04:55:01.616Z,72.92
2019-01-12T04:57:29.119Z,74.94
2019-01-12T04:59:56.377Z,73.56
2019-01-12T05:02:24.094Z,74.40
2019-01-12T05:04:51.411Z,76.36
2019-01-12T05:07:18.720Z,75.20
2019-01-12T05:09:46.057Z,74.43
2019-01-12T05:12:13.565Z,75.92
2019-01-12T05:14:40.822Z,76.72
2019-01-12T05:17:08.081Z,77.18
2019-01-12T05:19:35.412Z,74.23
2019-01-12T05:22:02.649Z,74.16
2019-01-12T05:24:29.902Z,75.42
2019-01-12T05:26:57.108Z,74.80
2019-01-12T05:29:24.320Z,75.15
2019-01-12T05:31:52.527Z,74.64
2019-01-12T05:34:19.844Z,74.17
2019-01-12T05:36:47.201Z,74.35
2019-01-12T05:39:14.469Z,75.38
2019-01-12T05:41:41.670Z,73.85
2019-01-12T05:44:08.935Z,72.86
2019-01-12T05:46:36.145Z,74.17
2019-01-12T05:49:03.406Z,73.32
2019-01-12T05:51:30.725Z,74.76
2019-01-12T05:53:57.942Z,75.09
2019-01-12T05:56:25.188Z,74.63
2019-01-12T05:58:52.420Z,73.52
2019-01-12T06:01:19.668Z,74.43
2019-01-12T06:03:49.250Z,75.35
2019-01-12T06:06:16.583Z,75.05
2019-01-12T06:08:43.917Z,75.57
2019-01-12T06:11:11.139Z,74.70
2019-01-12T06:13:38.410Z,76.30
2019-01-12T06:16:05.648Z,75.57
2019-01-12T06:18:32.884Z,73.69
2019-01-12T06:21:00.135Z,74.55
2019-01-12T06:23:27.908Z,75.40
2019-01-12T06:25:55.121Z,75.95
2019-01-12T06:28:22.372Z,75.20
2019-01-12T06:30:49.624Z,75.35
2019-01-12T06:33:16.925Z,76.90
2019-01-12T06:35:45.855Z,77.62
2019-01-12T06:38:13.127Z,77.62
2019-01-12T06:40:40.414Z,76.08
2019-01-12T06:43:07.619Z,77.95
2019-01-12T06:45:34.831Z,76.97
2019-01-12T06:48:02.099Z,76.43
2019-01-12T06:50:29.380Z,78.31
2019-01-12T06:52:56.604Z,75.92
2019-01-12T06:55:23.833Z,77.54
2019-01-12T06:57:51.106Z,77.33
2019-01-12T07:00:19.544Z,76.83
2019-01-12T07:02:49.448Z,77.67
2019-01-12T07:05:16.877Z,77.92
2019-01-12T07:07:49.054Z,77.81
2019-01-12T07:10:16.439Z,78.95
2019-01-12T07:12:43.910Z,77.86
2019-01-12T07:15:11.824Z,78.06
2019-01-12T07:17:39.108Z,78.69
2019-01-12T07:20:09.862Z,79.22
2019-01-12T07:22:37.157Z,77.87
2019-01-12T07:25:04.725Z,78.92
2019-01-12T07:27:32.084Z,78.83
2019-01-12T07:29:59.393Z,78.94
2019-01-12T07:32:26.608Z,78.24
2019-01-12T07:34:54.323Z,78.32
2019-01-12T07:37:22.583Z,78.44
2019-01-12T07:39:49.804Z,78.36
2019-01-12T07:42:17.166Z,79.31
2019-01-12T07:44:44.499Z,78.62
2019-01-12T07:47:13.201Z,78.56
2019-01-12T07:49:41.892Z,79.27
2019-01-12T07:52:09.174Z,78.30
2019-01-12T07:54:36.563Z,78.64
2019-01-12T07:57:03.927Z,78.97
2019-01-12T07:59:31.143Z,79.92
2019-01-12T08:01:58.375Z,79.93
2019-01-12T08:04:28.041Z,79.50
2019-01-12T08:06:55.457Z,79.56
2019-01-12T08:09:22.674Z,79.46
2019-01-12T08:11:50.132Z,79.39
2019-01-12T08:14:17.481Z,79.70
2019-01-12T08:16:46.380Z,79.99
2019-01-12T08:19:13.864Z,80.22
2019-01-12T08:21:43.049Z,79.81
2019-01-12T08:24:11.285Z,79.85
2019-01-12T08:26:38.532Z,79.68
2019-01-12T08:29:05.849Z,79.93
2019-01-12T08:31:33.112Z,79.89
2019-01-12T08:34:00.338Z,79.50
2019-01-12T08:36:27.908Z,80.21
2019-01-12T08:38:55.147Z,80.16
2019-01-12T08:41:26.556Z,79.95
2019-01-12T08:43:53.915Z,79.74
2019-01-12T08:46:21.512Z,80.28
2019-01-12T08:48:48.963Z,80.40
2019-01-12T08:51:16.628Z,80.50
2019-01-12T08:53:43.856Z,81.16
2019-01-12T08:56:11.121Z,80.82
2019-01-12T08:58:38.391Z,80.97
2019-01-12T09:01:05.641Z,81.26
2019-01-12T09:03:32.988Z,81.67
2019-01-12T09:06:00.888Z,81.76
2019-01-12T09:08:28.330Z,81.39
2019-01-12T09:10:55.605Z,81.62
2019-01-12T09:13:22.836Z,81.74
2019-01-12T09:15:50.052Z,82.24
2019-01-12T09:18:17.318Z,81.90
2019-01-12T09:20:44.562Z,81.83
2019-01-12T09:23:11.838Z,81.88
2019-01-12T09:25:39.077Z,82.14
2019-01-12T09:28:06.308Z,81.92
2019-01-12T09:30:33.565Z,81.95
2019-01-12T09:33:00.807Z,81.99
2019-01-12T09:35:28.094Z,82.47
2019-01-12T09:37:55.325Z,82.17
2019-01-12T09:40:22.565Z,82.15
2019-01-12T09:42:50.229Z,82.45
2019-01-12T09:45:17.745Z,82.21
2019-01-12T09:47:47.957Z,82.44
2019-01-12T09:50:17.163Z,81.95
2019-01-12T09:52:44.376Z,82.45
2019-01-12T09:55:11.711Z,82.41
2019-01-12T09:57:39.228Z,82.25
2019-01-12T10:00:18.279Z,82.15
2019-01-12T10:02:45.520Z,82.37
2019-01-12T10:05:12.975Z,82.72
2019-01-12T10:07:42.180Z,82.83
2019-01-12T10:10:13.775Z,83.02
2019-01-12T10:12:44.030Z,82.87
2019-01-12T10:15:11.465Z,82.68
2019-01-12T10:17:38.751Z,82.60
2019-01-12T10:20:07.849Z,82.59
2019-01-12T10:22:35.116Z,82.97
2019-01-12T10:25:02.370Z,83.08
2019-01-12T10:27:29.597Z,83.30
2019-01-12T10:29:57.212Z,83.20
2019-01-12T10:32:24.409Z,83.17
2019-01-12T10:34:51.876Z,83.55
2019-01-12T10:37:19.234Z,83.48
2019-01-12T10:39:46.459Z,83.41
2019-01-12T10:42:13.683Z,83.38
2019-01-12T10:44:40.982Z,83.04
2019-01-12T10:47:08.247Z,83.28
2019-01-12T10:49:35.503Z,82.46
2019-01-12T10:52:02.918Z,82.46
2019-01-12T10:54:30.201Z,82.52
2019-01-12T10:56:57.449Z,82.52
2019-01-12T10:59:24.680Z,82.71
2019-01-12T11:01:51.893Z,83.25
2019-01-12T11:04:19.441Z,82.99
2019-01-12T11:06:46.656Z,82.62
2019-01-12T11:09:14.443Z,83.03
2019-01-12T11:11:41.881Z,82.50
2019-01-12T11:14:09.170Z,82.24
2019-01-12T11:16:47.209Z,82.39
2019-01-12T11:19:14.633Z,82.58
2019-01-12T11:21:41.881Z,82.75
2019-01-12T11:24:09.253Z,82.49
2019-01-12T11:26:36.468Z,82.26
2019-01-12T11:29:04.261Z,82.15
2019-01-12T11:31:32.539Z,82.15
2019-01-12T11:34:00.424Z,81.93
2019-01-12T11:36:27.749Z,81.59
2019-01-12T11:38:54.993Z,81.59
2019-01-12T11:41:22.253Z,81.67
2019-01-12T11:43:49.512Z,81.61
2019-01-12T11:46:17.126Z,80.94
2019-01-12T11:48:44.342Z,80.92
2019-01-12T11:51:13.111Z,80.54
2019-01-12T11:53:40.474Z,80.72
2019-01-12T11:56:07.698Z,80.84
2019-01-12T11:58:34.923Z,80.78
2019-01-12T12:01:02.600Z,80.78
2019-01-12T12:03:29.827Z,80.93
2019-01-12T12:05:57.141Z,80.57
2019-01-12T12:08:24.434Z,80.62
2019-01-12T12:10:51.679Z,80.30
2019-01-12T12:13:18.967Z,79.36
2019-01-12T12:15:46.193Z,79.25
2019-01-12T12:18:13.453Z,79.25
2019-01-12T12:20:40.723Z,79.37
2019-01-12T12:23:07.946Z,80.26
2019-01-12T12:25:35.194Z,80.55
2019-01-12T12:28:02.527Z,81.03
2019-01-12T12:30:30.532Z,81.11
2019-01-12T12:32:58.518Z,81.08
2019-01-12T12:35:25.777Z,81.32
2019-01-12T12:37:53.029Z,81.32
2019-01-12T12:40:21.082Z,81.45
2019-01-12T12:42:48.380Z,81.45
2019-01-12T12:45:17.940Z,82.08
2019-01-12T12:47:45.153Z,81.44
2019-01-12T12:50:13.540Z,81.21
2019-01-12T12:52:40.761Z,81.30
2019-01-12T12:55:08.659Z,81.67
2019-01-12T12:57:35.937Z,80.89
2019-01-12T13:00:05.810Z,80.61
2019-01-12T13:02:33.034Z,80.26
2019-01-12T13:05:00.320Z,80.18
2019-01-12T13:07:27.569Z,80.29
2019-01-12T13:09:54.846Z,79.42
2019-01-12T13:12:22.099Z,79.42
2019-01-12T13:14:49.517Z,79.28
2019-01-12T13:17:16.737Z,79.22
2019-01-12T13:19:44.036Z,79.63
2019-01-12T13:22:11.548Z,78.67
2019-01-12T13:24:38.846Z,78.67
2019-01-12T13:27:06.058Z,78.60
2019-01-12T13:29:33.314Z,78.52
2019-01-12T13:32:00.596Z,78.73
2019-01-12T13:34:27.817Z,78.59
2019-01-12T13:36:55.095Z,78.33
2019-01-12T13:39:22.348Z,78.12
2019-01-12T13:41:49.589Z,77.95
2019-01-12T13:44:17.117Z,78.39
2019-01-12T13:46:44.371Z,77.93
2019-01-12T13:49:11.654Z,78.13
2019-01-12T13:51:39.200Z,78.13
2019-01-12T13:54:06.487Z,77.93
2019-01-12T13:56:33.754Z,77.74
2019-01-12T13:59:00.968Z,77.59
2019-01-12T14:01:28.228Z,77.94
2019-01-12T14:03:55.504Z,78.37
2019-01-12T14:06:22.776Z,78.19
2019-01-12T14:08:50.132Z,77.83
2019-01-12T14:11:17.433Z,77.90
2019-01-12T14:13:44.724Z,77.75
2019-01-12T14:16:12.049Z,77.94
2019-01-12T14:18:39.393Z,78.53
2019-01-12T14:21:06.637Z,77.47
2019-01-12T14:23:34.460Z,77.47
2019-01-12T14:26:01.697Z,77.84
2019-01-12T14:28:30.595Z,78.64
2019-01-12T14:30:57.862Z,78.38
2019-01-12T14:33:25.139Z,77.28
2019-01-12T14:35:52.389Z,77.59
2019-01-12T14:38:19.617Z,77.23
2019-01-12T14:40:46.926Z,77.61
2019-01-12T14:43:14.246Z,78.60
2019-01-12T14:45:41.602Z,78.60
2019-01-12T14:48:09.264Z,78.44
2019-01-12T14:50:36.620Z,77.77
2019-01-12T14:53:03.938Z,77.74
2019-01-12T14:55:31.513Z,77.73
2019-01-12T14:58:02.580Z,77.80
2019-01-12T15:00:28.587Z,77.33
2019-01-12T15:02:55.866Z,78.47
2019-01-12T15:05:25.422Z,77.62
2019-01-12T15:07:52.613Z,77.19
2019-01-12T15:10:20.878Z,77.28
2019-01-12T15:12:48.499Z,77.44
2019-01-12T15:15:16.633Z,77.49
2019-01-12T15:17:44.210Z,78.06
2019-01-12T15:20:14.239Z,78.55
2019-01-12T15:22:41.503Z,78.01
2019-01-12T15:25:09.178Z,78.28
2019-01-12T15:27:37.185Z,79.84
2019-01-12T15:30:08.326Z,78.58
2019-01-12T15:32:35.568Z,78.18
2019-01-12T15:35:03.935Z,77.83
2019-01-12T15:37:31.275Z,79.43
2019-01-12T15:39:58.496Z,78.00
2019-01-12T15:42:25.731Z,78.37
2019-01-12T15:44:52.985Z,77.65
2019-01-12T15:47:20.258Z,78.49
2019-01-12T15:49:49.051Z,78.43
2019-01-12T15:52:18.541Z,79.40
2019-01-12T15:54:47.407Z,78.78
2019-01-12T15:57:14.882Z,77.72
2019-01-12T15:59:42.225Z,77.79
2019-01-12T16:02:09.597Z,78.44
2019-01-12T16:04:36.935Z,77.92
2019-01-12T16:07:04.168Z,78.00
2019-01-12T16:09:31.397Z,78.42
2019-01-12T16:11:58.678Z,78.26
2019-01-12T16:14:26.133Z,78.03
2019-01-12T16:16:53.464Z,78.26
2019-01-12T16:19:20.946Z,78.17
2019-01-12T16:21:50.526Z,77.62
2019-01-12T16:24:17.782Z,77.86
2019-01-12T16:26:45.082Z,77.85
2019-01-12T16:29:12.524Z,78.12
2019-01-12T16:31:39.960Z,78.35
2019-01-12T16:34:07.407Z,78.55
2019-01-12T16:36:34.803Z,77.95
2019-01-12T16:39:02.210Z,79.42
2019-01-12T16:41:29.441Z,78.02
2019-01-12T16:43:56.738Z,77.95
2019-01-12T16:46:24.000Z,78.56
2019-01-12T16:48:51.585Z,78.96
2019-01-12T16:51:21.697Z,78.39
2019-01-12T16:53:49.246Z,78.49
2019-01-12T16:56:16.530Z,78.19
2019-01-12T16:58:43.985Z,78.25
2019-01-12T17:01:11.251Z,78.29
2019-01-12T17:03:38.555Z,77.98
2019-01-12T17:06:05.804Z,77.87
2019-01-12T17:08:34.409Z,78.47
2019-01-12T17:11:04.021Z,78.37
2019-01-12T17:13:31.492Z,79.49
2019-01-12T17:15:58.714Z,79.03
2019-01-12T17:18:30.029Z,78.52
2019-01-12T17:20:57.703Z,78.67
2019-01-12T17:23:27.040Z,78.98
2019-01-12T17:25:54.524Z,78.90
2019-01-12T17:28:21.827Z,78.56
2019-01-12T17:30:49.382Z,78.89
2019-01-12T17:33:16.728Z,78.61
2019-01-12T17:35:44.089Z,78.65
2019-01-12T17:38:14.022Z,78.78
2019-01-12T17:40:41.381Z,79.24
2019-01-12T17:43:08.687Z,78.78
2019-01-12T17:45:36.039Z,78.83
2019-01-12T17:48:03.707Z,79.29
2019-01-12T17:50:30.968Z,78.35
2019-01-12T17:52:58.303Z,78.47
2019-01-12T17:55:26.781Z,79.40
2019-01-12T17:57:55.526Z,78.97
2019-01-12T18:00:30.075Z,79.55
2019-01-12T18:02:57.729Z,79.39
2019-01-12T18:05:31.565Z,79.21
2019-01-12T18:07:58.983Z,79.65
2019-01-12T18:10:26.331Z,79.70
2019-01-12T18:12:53.612Z,79.84
2019-01-12T18:15:20.855Z,79.64
2019-01-12T18:17:51.255Z,79.71
2019-01-12T18:20:18.673Z,79.99
2019-01-12T18:22:45.976Z,79.99
2019-01-12T18:25:13.960Z,79.26
2019-01-12T18:27:41.917Z,79.04
2019-01-12T18:30:13.821Z,79.04
2019-01-12T18:32:41.093Z,79.05
2019-01-12T18:35:08.544Z,79.05
2019-01-12T18:37:35.826Z,79.40
2019-01-12T18:40:04.221Z,79.07
2019-01-12T18:42:32.367Z,79.29
2019-01-12T18:44:59.619Z,78.93
2019-01-12T18:47:26.859Z,78.79
2019-01-12T18:49:54.145Z,78.86
2019-01-12T18:52:21.385Z,79.49
2019-01-12T18:54:48.706Z,79.30
2019-01-12T18:57:15.939Z,79.00
2019-01-12T18:59:43.321Z,79.31
2019-01-12T19:02:15.251Z,78.78
2019-01-12T19:04:42.618Z,78.78
2019-01-12T19:07:10.199Z,78.98
2019-01-12T19:09:38.372Z,78.79
2019-01-12T19:12:05.943Z,78.66
2019-01-12T19:14:33.257Z,78.47
2019-01-12T19:17:00.484Z,78.42
2019-01-12T19:19:27.707Z,79.39
2019-01-12T19:21:55.168Z,79.55
2019-01-12T19:24:22.684Z,78.86
2019-01-12T19:26:49.964Z,78.67
2019-01-12T19:29:17.247Z,79.24
2019-01-12T19:31:48.036Z,79.62
2019-01-12T19:34:15.325Z,78.87
2019-01-12T19:36:46.823Z,79.19
2019-01-12T19:39:15.811Z,78.77
2019-01-12T19:41:43.090Z,78.38
2019-01-12T19:44:11.220Z,78.58
2019-01-12T19:46:38.431Z,78.30
2019-01-12T19:49:08.251Z,78.42
2019-01-12T19:51:35.631Z,78.69
2019-01-12T19:54:02.875Z,78.48
2019-01-12T19:56:30.151Z,79.07
2019-01-12T19:58:57.503Z,79.96
2019-01-12T20:01:24.730Z,78.73
2019-01-12T20:03:52.010Z,78.65
2019-01-12T20:06:19.321Z,79.38
2019-01-12T20:08:46.520Z,79.30
2019-01-12T20:11:13.787Z,78.81
2019-01-12T20:13:41.199Z,79.16
2019-01-12T20:16:14.382Z,79.30
2019-01-12T20:18:48.691Z,79.01
2019-01-12T20:21:17.196Z,78.82
2019-01-12T20:23:44.460Z,79.02
2019-01-12T20:26:20.798Z,79.02
2019-01-12T20:28:57.115Z,78.90
2019-01-12T20:32:06.611Z,78.53
2019-01-12T20:34:41.412Z,80.42
2019-01-12T20:38:01.247Z,78.22
2019-01-12T20:41:05.611Z,78.28
2019-01-12T20:44:00.195Z,78.21
2019-01-12T20:46:57.697Z,79.04
2019-01-12T20:49:45.408Z,79.06
2019-01-12T20:52:50.173Z,78.50
2019-01-12T20:55:46.183Z,78.35
2019-01-12T20:58:57.129Z,78.33
2019-01-12T21:02:08.058Z,78.31
2019-01-12T21:05:00.909Z,79.18
2019-01-12T21:08:07.411Z,79.00
2019-01-12T21:11:13.975Z,78.62
2019-01-12T21:14:29.079Z,79.19
2019-01-12T21:17:00.579Z,78.95
2019-01-12T21:19:27.803Z,78.44
2019-01-12T21:21:55.057Z,79.24
2019-01-12T21:24:22.275Z,78.09
2019-01-12T21:26:49.556Z,77.95
2019-01-12T21:29:16.817Z,78.09
2019-01-12T21:31:44.052Z,78.67
2019-01-12T21:34:11.322Z,78.37
2019-01-12T21:36:38.561Z,79.08
2019-01-12T21:39:10.369Z,79.08
2019-01-12T21:41:37.849Z,78.68
2019-01-12T21:44:05.328Z,77.69
2019-01-12T21:46:32.757Z,78.31
2019-01-12T21:49:00.127Z,78.57
2019-01-12T21:51:27.481Z,78.45
2019-01-12T21:54:13.424Z,78.20
2019-01-12T21:56:43.626Z,78.12
2019-01-12T21:59:13.185Z,78.78
2019-01-12T22:01:47.630Z,79.19
2019-01-12T22:04:14.874Z,78.69
2019-01-12T22:06:42.162Z,78.81
2019-01-12T22:09:10.396Z,78.81
2019-01-12T22:11:44.634Z,79.05
2019-01-12T22:14:11.948Z,79.36
2019-01-12T22:16:39.175Z,79.36
2019-01-12T22:19:06.444Z,79.21
2019-01-12T22:21:33.718Z,79.21
2019-01-12T22:24:00.965Z,78.94
2019-01-12T22:26:28.230Z,78.97
2019-01-12T22:28:55.496Z,78.03
2019-01-12T22:31:22.740Z,78.30
2019-01-12T22:33:49.988Z,78.49
2019-01-12T22:36:17.672Z,78.94
2019-01-12T22:38:44.922Z,79.68
2019-01-12T22:41:12.215Z,79.16
2019-01-12T22:43:41.949Z,78.94
2019-01-12T22:46:09.225Z,79.03
2019-01-12T22:48:36.463Z,81.04
2019-01-12T22:51:03.841Z,79.38
2019-01-12T22:53:31.136Z,79.60
2019-01-12T22:55:58.380Z,79.57
2019-01-12T22:58:25.622Z,79.77
2019-01-12T23:01:13.987Z,80.59
2019-01-12T23:03:45.787Z,80.59
2019-01-12T23:06:13.242Z,80.20
2019-01-12T23:08:40.453Z,80.87
2019-01-12T23:11:07.716Z,80.13
2019-01-12T23:13:34.993Z,80.62
2019-01-12T23:16:02.515Z,80.71
2019-01-12T23:18:30.083Z,80.49
2019-01-12T23:20:57.688Z,80.27
2019-01-12T23:23:24.930Z,79.97
2019-01-12T23:25:52.152Z,80.20
2019-01-12T23:28:19.626Z,79.93
2019-01-12T23:30:46.875Z,80.21
2019-01-12T23:33:14.109Z,80.04
2019-01-12T23:35:41.389Z,80.18
2019-01-12T23:38:08.964Z,80.56
2019-01-12T23:40:36.190Z,79.97
2019-01-12T23:43:03.680Z,79.66
2019-01-12T23:45:30.905Z,80.04
2019-01-12T23:47:58.162Z,79.65
2019-01-12T23:50:25.397Z,80.32
2019-01-12T23:52:52.649Z,79.81
2019-01-12T23:55:19.906Z,79.81
2019-01-12T23:57:47.140Z,79.98
